createdAt,value
2022-09-23T00:00:14.147Z,11.80
2022-09-23T00:02:47.164Z,11.80
2022-09-23T00:05:14.084Z,11.80
2022-09-23T00:07:41.167Z,11.80
2022-09-23T00:10:08.453Z,11.80
2022-09-23T00:12:38.061Z,11.80
2022-09-23T00:15:13.622Z,11.80
2022-09-23T00:17:42.888Z,11.80
2022-09-23T00:20:15.818Z,11.70
2022-09-23T00:22:45.649Z,11.70
2022-09-23T00:25:12.632Z,11.70
2022-09-23T00:27:43.342Z,11.70
2022-09-23T00:30:15.273Z,11.70
2022-09-23T00:32:46.400Z,11.70
2022-09-23T00:35:18.508Z,11.70
2022-09-23T00:37:45.171Z,11.70
2022-09-23T00:40:12.051Z,11.70
2022-09-23T00:42:45.053Z,11.70
2022-09-23T00:45:20.669Z,11.70
2022-09-23T00:47:54.857Z,11.70
2022-09-23T00:53:30.874Z,11.60
2022-09-23T00:56:04.079Z,11.60
2022-09-23T00:58:42.716Z,11.50
2022-09-23T01:01:09.441Z,11.50
2022-09-23T01:03:45.982Z,11.40
2022-09-23T01:06:15.309Z,11.30
2022-09-23T01:08:52.092Z,11.30
2022-09-23T01:11:57.326Z,11.30
2022-09-23T01:15:01.173Z,11.20
2022-09-23T01:20:58.458Z,11.20
2022-09-23T01:24:01.044Z,11.20
2022-09-23T01:26:49.188Z,11.30
2022-09-23T01:29:46.611Z,11.30
2022-09-23T01:35:36.354Z,11.30
2022-09-23T01:38:39.809Z,11.30
2022-09-23T01:41:44.967Z,11.20
2022-09-23T01:44:21.516Z,11.20
2022-09-23T01:47:01.697Z,11.20
2022-09-23T01:49:57.401Z,11.20
2022-09-23T01:52:29.163Z,11.20
2022-09-23T01:55:03.930Z,11.20
2022-09-23T01:57:38.157Z,11.10
2022-09-23T02:00:17.043Z,11.10
2022-09-23T02:02:57.833Z,11.00
2022-09-23T02:05:37.536Z,11.00
2022-09-23T02:08:36.266Z,11.00
2022-09-23T02:11:11.564Z,11.00
2022-09-23T02:14:16.832Z,10.90
2022-09-23T02:16:56.610Z,11.00
2022-09-23T02:19:32.017Z,10.90
2022-09-23T02:22:08.292Z,10.90
2022-09-23T02:24:38.248Z,10.90
2022-09-23T02:27:31.248Z,10.90
2022-09-23T02:30:16.093Z,10.90
2022-09-23T02:33:12.824Z,10.80
2022-09-23T02:35:54.951Z,10.80
2022-09-23T02:38:49.656Z,10.80
2022-09-23T02:41:19.991Z,10.80
2022-09-23T02:43:53.933Z,10.70
2022-09-23T02:46:21.016Z,10.70
2022-09-23T02:48:55.559Z,10.70
2022-09-23T02:51:23.254Z,10.70
2022-09-23T02:53:49.955Z,10.60
2022-09-23T02:56:20.801Z,10.60
2022-09-23T02:58:49.167Z,10.50
2022-09-23T03:01:44.005Z,10.60
2022-09-23T03:04:19.632Z,10.50
2022-09-23T03:07:01.043Z,10.50
2022-09-23T03:09:52.903Z,10.50
2022-09-23T03:12:50.431Z,10.50
2022-09-23T03:15:31.248Z,10.50
2022-09-23T03:18:25.044Z,10.50
2022-09-23T03:20:54.256Z,10.50
2022-09-23T03:23:25.949Z,10.60
2022-09-23T03:25:55.371Z,10.60
2022-09-23T03:28:23.476Z,10.60
2022-09-23T03:30:52.412Z,10.60
2022-09-23T03:33:26.787Z,10.60
2022-09-23T03:36:01.751Z,10.60
2022-09-23T03:38:34.942Z,10.60
2022-09-23T03:41:04.134Z,10.70
2022-09-23T03:43:36.517Z,10.70
2022-09-23T03:46:05.774Z,10.70
2022-09-23T03:48:32.447Z,10.70
2022-09-23T03:51:21.812Z,10.70
2022-09-23T03:53:48.694Z,10.70
2022-09-23T03:56:15.416Z,10.70
2022-09-23T03:58:41.984Z,10.70
2022-09-23T04:01:20.768Z,10.70
2022-09-23T04:04:26.409Z,10.70
2022-09-23T04:06:58.972Z,10.70
2022-09-23T04:09:40.001Z,10.70
2022-09-23T04:12:11.665Z,10.70
2022-09-23T04:14:38.525Z,10.70
2022-09-23T04:17:09.936Z,10.70
2022-09-23T04:19:39.522Z,10.70
2022-09-23T04:22:18.165Z,10.70
2022-09-23T04:27:34.229Z,10.70
2022-09-23T04:30:04.341Z,10.70
2022-09-23T04:32:31.002Z,10.80
2022-09-23T04:34:57.675Z,10.80
2022-09-23T04:37:24.374Z,10.80
2022-09-23T04:40:00.170Z,10.80
2022-09-23T04:42:29.036Z,10.90
2022-09-23T04:45:05.326Z,10.90
2022-09-23T04:47:38.093Z,10.90
2022-09-23T04:50:19.376Z,10.90
2022-09-23T04:52:49.139Z,10.90
2022-09-23T04:55:15.917Z,10.90
2022-09-23T04:57:45.619Z,10.90
2022-09-23T05:00:17.521Z,10.90
2022-09-23T05:02:47.695Z,10.90
2022-09-23T05:05:22.821Z,10.90
2022-09-23T05:07:55.595Z,10.90
2022-09-23T05:10:37.773Z,11.00
2022-09-23T05:13:13.218Z,11.00
2022-09-23T05:15:45.896Z,11.00
2022-09-23T05:18:12.602Z,11.00
2022-09-23T05:21:05.085Z,11.00
2022-09-23T05:23:55.571Z,11.00
2022-09-23T05:26:24.204Z,11.00
2022-09-23T05:28:51.332Z,11.10
2022-09-23T05:31:22.240Z,11.10
2022-09-23T05:34:03.712Z,11.10
2022-09-23T05:36:40.133Z,11.10
2022-09-23T05:39:08.059Z,11.10
2022-09-23T05:41:35.547Z,11.10
2022-09-23T05:44:02.635Z,11.10
2022-09-23T05:46:32.304Z,11.10
2022-09-23T05:49:02.578Z,11.10
2022-09-23T05:51:31.661Z,11.20
2022-09-23T05:56:45.976Z,11.20
2022-09-23T05:59:16.534Z,11.20
2022-09-23T06:04:24.728Z,11.20
2022-09-23T06:07:23.895Z,11.20
2022-09-23T06:09:53.317Z,11.30
2022-09-23T06:12:23.157Z,11.30
2022-09-23T06:15:04.254Z,11.30
2022-09-23T06:34:09.337Z,11.60
2022-09-23T06:36:43.931Z,11.70
2022-09-23T06:39:11.899Z,11.70
2022-09-23T06:41:38.572Z,11.80
2022-09-23T06:44:05.467Z,11.80
2022-09-23T06:46:32.226Z,11.90
2022-09-23T06:48:59.111Z,12.00
2022-09-23T06:51:25.771Z,12.00
2022-09-23T06:53:53.508Z,12.00
2022-09-23T06:56:20.077Z,12.10
2022-09-23T06:58:47.325Z,12.10
2022-09-23T07:01:16.131Z,12.20
2022-09-23T07:03:44.511Z,12.30
2022-09-23T07:06:11.598Z,12.30
2022-09-23T07:09:11.797Z,12.40
2022-09-23T07:11:38.374Z,12.40
2022-09-23T07:17:41.818Z,12.60
2022-09-23T07:43:06.757Z,13.60
2022-09-23T07:45:33.465Z,13.70
2022-09-23T07:48:02.875Z,13.80
2022-09-23T07:50:39.235Z,13.90
2022-09-23T07:53:08.983Z,13.90
2022-09-23T07:55:35.795Z,13.90
2022-09-23T07:58:08.421Z,14.00
2022-09-23T08:00:37.948Z,14.10
2022-09-23T08:03:10.558Z,14.20
2022-09-23T08:05:46.107Z,14.30
2022-09-23T08:08:21.741Z,14.30
2022-09-23T08:11:02.499Z,14.40
2022-09-23T08:13:29.311Z,14.40
2022-09-23T08:15:56.540Z,14.50
2022-09-23T08:18:31.238Z,14.50
2022-09-23T08:21:01.205Z,14.60
2022-09-23T08:23:34.024Z,14.60
2022-09-23T08:26:19.891Z,14.70
2022-09-23T08:28:49.142Z,14.70
2022-09-23T08:31:16.172Z,14.80
2022-09-23T08:33:46.081Z,14.80
2022-09-23T08:36:18.098Z,14.90
2022-09-23T08:38:53.777Z,15.00
2022-09-23T08:41:35.294Z,15.10
2022-09-23T08:44:25.464Z,15.20
2022-09-23T08:47:22.914Z,15.20
2022-09-23T08:50:11.330Z,15.30
2022-09-23T08:55:49.200Z,15.30
2022-09-23T09:01:36.599Z,15.50
2022-09-23T09:04:14.837Z,15.60
2022-09-23T09:06:53.641Z,15.70
2022-09-23T09:09:46.849Z,15.80
2022-09-23T09:12:31.068Z,15.80
2022-09-23T09:15:06.989Z,15.90
2022-09-23T09:20:15.514Z,16.00
2022-09-23T09:25:57.319Z,16.00
2022-09-23T09:31:57.013Z,16.10
2022-09-23T09:34:58.371Z,16.10
2022-09-23T09:37:31.827Z,16.20
2022-09-23T09:40:00.544Z,16.30
2022-09-23T09:46:04.809Z,16.50
2022-09-23T09:51:24.511Z,16.80
2022-09-23T09:53:54.281Z,16.90
2022-09-23T09:56:35.500Z,16.90
2022-09-23T09:59:09.905Z,17.00
2022-09-23T10:01:37.169Z,17.10
2022-09-23T10:04:06.780Z,17.20
2022-09-23T10:06:39.049Z,17.30
2022-09-23T10:09:13.544Z,17.30
2022-09-23T10:11:44.733Z,17.20
2022-09-23T10:14:23.717Z,17.30
2022-09-23T10:17:24.242Z,17.40
2022-09-23T10:23:26.792Z,17.40
2022-09-23T10:29:02.058Z,17.50
2022-09-23T10:37:34.038Z,17.70
2022-09-23T10:40:37.670Z,17.80
2022-09-23T10:43:37.184Z,17.90
2022-09-23T10:46:08.136Z,18.00
2022-09-23T10:49:01.680Z,18.00
2022-09-23T10:52:06.685Z,18.10
2022-09-23T10:54:36.154Z,18.20
2022-09-23T11:01:15.208Z,18.40
2022-09-23T11:04:19.109Z,18.40
2022-09-23T11:07:33.821Z,18.30
2022-09-23T11:10:00.590Z,18.20
2022-09-23T11:19:29.402Z,17.70
2022-09-23T11:22:08.272Z,17.60
2022-09-23T11:25:12.222Z,17.50
2022-09-23T11:28:05.797Z,17.50
2022-09-23T11:31:16.821Z,17.40
2022-09-23T11:43:40.980Z,17.60
2022-09-23T11:46:45.319Z,17.70
2022-09-23T11:49:57.727Z,17.70
2022-09-23T12:01:54.491Z,17.70
2022-09-23T12:04:57.358Z,17.70
2022-09-23T12:07:33.226Z,17.70
2022-09-23T12:10:29.368Z,17.80
2022-09-23T12:13:38.264Z,17.80
2022-09-23T12:16:42.067Z,17.90
2022-09-23T12:19:43.109Z,17.90
2022-09-23T12:22:26.287Z,18.00
2022-09-23T12:25:31.355Z,18.10
2022-09-23T12:28:10.698Z,18.20
2022-09-23T12:30:39.712Z,18.30
2022-09-23T12:33:11.164Z,18.40
2022-09-23T12:35:43.312Z,18.50
2022-09-23T12:38:31.980Z,18.60
2022-09-23T12:41:41.932Z,18.80
2022-09-23T12:44:12.647Z,19.00
2022-09-23T12:46:40.755Z,19.00
2022-09-23T12:49:23.720Z,18.90
2022-09-23T12:52:12.115Z,18.80
2022-09-23T12:54:40.345Z,18.70
2022-09-23T12:57:31.689Z,18.60
2022-09-23T13:00:08.837Z,18.60
2022-09-23T13:02:56.202Z,18.50
2022-09-23T13:05:32.662Z,18.50
2022-09-23T13:08:05.148Z,18.50
2022-09-23T13:10:46.130Z,18.50
2022-09-23T13:13:33.218Z,18.50
2022-09-23T13:16:39.497Z,18.50
2022-09-23T13:22:41.094Z,18.50
2022-09-23T13:25:19.246Z,18.40
2022-09-23T13:27:51.787Z,18.40
2022-09-23T13:30:25.700Z,18.50
2022-09-23T13:33:16.276Z,18.50
2022-09-23T13:36:12.622Z,18.50
2022-09-23T13:38:41.789Z,18.50
2022-09-23T13:41:41.938Z,18.50
2022-09-23T13:44:16.576Z,18.50
2022-09-23T13:46:47.130Z,18.50
2022-09-23T13:49:25.726Z,18.50
2022-09-23T13:51:53.206Z,18.60
2022-09-23T13:57:28.882Z,18.40
2022-09-23T14:00:27.818Z,18.40
2022-09-23T14:02:54.604Z,18.40
2022-09-23T14:05:25.583Z,18.40
2022-09-23T14:07:59.226Z,18.40
2022-09-23T14:10:29.114Z,18.40
2022-09-23T14:12:58.342Z,18.40
2022-09-23T14:15:25.642Z,18.40
2022-09-23T14:18:02.918Z,18.30
2022-09-23T14:20:32.109Z,18.20
2022-09-23T14:25:42.473Z,18.20
2022-09-23T14:28:20.891Z,18.20
2022-09-23T14:30:49.496Z,18.20
2022-09-23T14:33:28.234Z,18.10
2022-09-23T14:38:45.169Z,18.00
2022-09-23T14:41:36.588Z,17.90
2022-09-23T14:44:22.140Z,17.90
2022-09-23T14:47:00.496Z,17.90
2022-09-23T14:49:36.356Z,17.90
2022-09-23T14:52:06.785Z,17.90
2022-09-23T14:55:14.098Z,17.90
2022-09-23T14:57:46.761Z,17.80
2022-09-23T15:00:22.925Z,17.80
2022-09-23T15:03:15.025Z,17.80
2022-09-23T15:08:45.006Z,17.70
2022-09-23T15:11:24.503Z,17.70
2022-09-23T15:14:19.537Z,17.70
2022-09-23T15:16:50.028Z,17.60
2022-09-23T15:19:19.887Z,17.60
2022-09-23T15:21:55.630Z,17.50
2022-09-23T15:24:40.931Z,17.50
2022-09-23T15:27:41.881Z,17.50
2022-09-23T15:30:19.405Z,17.50
2022-09-23T15:32:46.726Z,17.40
2022-09-23T15:35:20.610Z,17.40
2022-09-23T15:37:49.762Z,17.30
2022-09-23T15:40:28.771Z,17.30
2022-09-23T15:43:21.043Z,17.20
2022-09-23T15:46:19.401Z,17.10
2022-09-23T15:48:58.929Z,17.10
2022-09-23T15:51:27.381Z,17.00
2022-09-23T15:53:54.722Z,17.00
2022-09-23T15:56:27.021Z,16.90
2022-09-23T15:58:56.074Z,16.90
2022-09-23T16:01:34.932Z,16.80
2022-09-23T16:04:02.401Z,16.80
2022-09-23T16:06:38.419Z,16.80
2022-09-23T16:09:08.446Z,16.70
2022-09-23T16:11:38.167Z,16.70
2022-09-23T16:14:12.886Z,16.60
2022-09-23T16:16:42.721Z,16.60
2022-09-23T16:19:09.571Z,16.60
2022-09-23T16:21:38.979Z,16.50
2022-09-23T16:24:15.807Z,16.50
2022-09-23T16:26:42.863Z,16.50
2022-09-23T16:29:14.969Z,16.50
2022-09-23T16:31:47.511Z,16.50
2022-09-23T16:34:16.962Z,16.50
2022-09-23T16:36:49.090Z,16.40
2022-09-23T16:39:15.710Z,16.40
2022-09-23T16:41:50.269Z,16.30
2022-09-23T16:44:16.860Z,16.30
2022-09-23T16:46:43.482Z,16.30
2022-09-23T16:49:10.522Z,16.20
2022-09-23T16:51:46.278Z,16.20
2022-09-23T16:54:15.678Z,16.10
2022-09-23T16:59:34.572Z,16.00
2022-09-23T17:02:01.235Z,16.00
2022-09-23T17:04:30.510Z,16.00
2022-09-23T17:06:57.828Z,15.90
2022-09-23T17:09:29.376Z,15.90
2022-09-23T17:12:11.500Z,15.90
2022-09-23T17:14:38.089Z,15.80
2022-09-23T17:17:04.762Z,15.80
2022-09-23T17:19:34.400Z,15.80
2022-09-23T17:22:13.379Z,15.70
2022-09-23T17:24:40.252Z,15.70
2022-09-23T17:27:09.977Z,15.70
2022-09-23T17:29:36.602Z,15.70
2022-09-23T17:32:11.378Z,15.60
2022-09-23T17:34:38.074Z,15.60
2022-09-23T17:37:04.765Z,15.60
2022-09-23T17:39:31.483Z,15.60
2022-09-23T17:41:58.137Z,15.50
2022-09-23T17:44:24.868Z,15.50
2022-09-23T17:46:51.710Z,15.50
2022-09-23T17:49:18.365Z,15.50
2022-09-23T17:51:45.060Z,15.50
2022-09-23T17:54:11.730Z,15.40
2022-09-23T17:56:38.363Z,15.40
2022-09-23T17:59:04.952Z,15.40
2022-09-23T18:01:31.664Z,15.30
2022-09-23T18:04:00.721Z,15.30
2022-09-23T18:06:29.520Z,15.30
2022-09-23T18:08:57.953Z,15.30
2022-09-23T18:11:29.441Z,15.30
2022-09-23T18:14:04.767Z,15.30
2022-09-23T18:16:35.243Z,15.30
2022-09-23T18:19:04.132Z,15.30
2022-09-23T18:21:33.666Z,15.30
2022-09-23T18:24:28.587Z,15.30
2022-09-23T18:26:47.914Z,15.20
2022-09-23T18:29:14.509Z,15.20
2022-09-23T18:48:21.094Z,15.20
2022-09-23T18:50:47.834Z,15.10
2022-09-23T18:53:14.547Z,15.10
2022-09-23T18:55:42.019Z,15.10
2022-09-23T18:58:15.168Z,15.10
2022-09-23T19:00:45.042Z,15.10
2022-09-23T19:04:04.457Z,15.10
2022-09-23T19:06:52.958Z,15.00
2022-09-23T19:18:16.616Z,14.90
2022-09-23T19:20:55.038Z,14.90
2022-09-23T19:23:21.950Z,14.90
2022-09-23T19:26:01.036Z,14.90
2022-09-23T19:28:27.927Z,14.90
2022-09-23T19:30:54.582Z,14.80
2022-09-23T19:33:22.280Z,14.80
2022-09-23T19:35:50.838Z,14.80
2022-09-23T19:38:18.617Z,14.80
2022-09-23T19:40:49.742Z,14.80
2022-09-23T19:43:16.731Z,14.80
2022-09-23T19:45:43.412Z,14.70
2022-09-23T19:48:10.439Z,14.70
2022-09-23T19:50:40.192Z,14.70
2022-09-23T19:53:07.459Z,14.70
2022-09-23T19:55:37.418Z,14.70
2022-09-23T19:58:04.465Z,14.70
2022-09-23T20:00:32.179Z,14.70
2022-09-23T20:02:59.417Z,14.70
2022-09-23T20:05:26.756Z,14.70
2022-09-23T20:07:53.426Z,14.70
2022-09-23T20:10:20.353Z,14.70
2022-09-23T20:12:46.946Z,14.60
2022-09-23T20:15:14.373Z,14.60
2022-09-23T20:17:41.053Z,14.60
2022-09-23T20:20:09.777Z,14.50
2022-09-23T20:23:00.984Z,14.50
2022-09-23T20:25:27.747Z,14.50
2022-09-23T20:27:55.590Z,14.40
2022-09-23T20:30:22.207Z,14.40
2022-09-23T20:35:18.997Z,14.40
2022-09-23T20:39:02.035Z,14.30
2022-09-23T20:41:55.451Z,14.30
2022-09-23T20:44:52.375Z,14.30
2022-09-23T20:50:05.077Z,14.20
2022-09-23T20:55:35.935Z,14.30
2022-09-23T21:05:28.619Z,14.20
2022-09-23T21:08:00.756Z,14.20
2022-09-23T21:10:29.517Z,14.20
2022-09-23T21:12:58.297Z,14.10
2022-09-23T21:15:37.284Z,14.10
2022-09-23T21:18:05.086Z,14.10
2022-09-23T21:20:34.939Z,14.10
2022-09-23T21:23:10.476Z,14.10
2022-09-23T21:25:37.737Z,14.10
2022-09-23T21:28:10.963Z,14.00
2022-09-23T21:30:42.035Z,14.00
2022-09-23T21:33:14.178Z,14.00
2022-09-23T21:35:47.533Z,14.00
2022-09-23T21:38:14.380Z,14.00
2022-09-23T21:41:15.638Z,14.00
2022-09-23T21:50:31.539Z,14.00
2022-09-23T21:52:59.270Z,14.10
2022-09-23T21:55:29.693Z,14.10
2022-09-23T21:58:01.618Z,14.10
2022-09-23T22:00:34.222Z,14.10
2022-09-23T22:03:00.906Z,14.10
2022-09-23T22:05:36.566Z,14.10
2022-09-23T22:08:03.163Z,14.10
2022-09-23T22:10:31.796Z,14.10
2022-09-23T22:12:58.476Z,14.10
2022-09-23T22:15:31.139Z,14.10
2022-09-23T22:18:09.103Z,14.10
2022-09-23T22:20:35.769Z,14.10
2022-09-23T22:23:08.438Z,14.10
2022-09-23T22:25:37.359Z,14.10
2022-09-23T22:28:12.688Z,14.10
2022-09-23T22:30:39.406Z,14.00
2022-09-23T22:33:09.064Z,14.00
2022-09-23T22:35:35.673Z,14.00
2022-09-23T22:38:15.664Z,14.00
2022-09-23T22:40:47.838Z,14.00
2022-09-23T22:43:20.507Z,14.00
2022-09-23T22:45:53.040Z,14.00
2022-09-23T22:48:21.956Z,14.00
2022-09-23T22:50:54.203Z,14.00
2022-09-23T22:53:23.098Z,14.00
2022-09-23T22:56:39.205Z,14.00
2022-09-23T22:59:07.870Z,14.00
2022-09-23T23:01:37.695Z,14.00
2022-09-23T23:04:04.719Z,14.00
2022-09-23T23:06:39.663Z,14.00
2022-09-23T23:09:13.314Z,14.00
2022-09-23T23:11:43.170Z,14.00
2022-09-23T23:14:11.256Z,14.00
2022-09-23T23:16:38.459Z,14.00
2022-09-23T23:19:17.708Z,13.90
2022-09-23T23:21:45.111Z,13.90
2022-09-23T23:24:26.631Z,13.90
2022-09-23T23:26:57.753Z,13.90
2022-09-23T23:29:26.829Z,13.90
2022-09-23T23:31:58.831Z,13.90
2022-09-23T23:34:28.483Z,13.80
2022-09-23T23:37:04.196Z,13.80
2022-09-23T23:39:36.221Z,13.90
2022-09-23T23:42:02.945Z,13.90
2022-09-23T23:44:35.001Z,13.80
2022-09-23T23:47:07.217Z,13.80
2022-09-23T23:49:42.748Z,13.80
2022-09-23T23:52:19.810Z,13.80
2022-09-23T23:54:49.367Z,13.80
2022-09-23T23:57:18.882Z,13.80
2022-09-23T23:59:54.102Z,13.80
